createdAt,value
2017-04-05T00:00:23.531Z,0
2017-04-05T00:01:04.149Z,0
2017-04-05T00:01:44.735Z,0
2017-04-05T00:02:25.300Z,0
2017-04-05T00:03:05.869Z,0
2017-04-05T00:03:46.436Z,0
2017-04-05T00:04:27.019Z,0
2017-04-05T00:05:07.588Z,0
2017-04-05T00:05:48.178Z,0
2017-04-05T00:06:28.762Z,0
2017-04-05T00:07:09.331Z,0
2017-04-05T00:07:49.918Z,0
2017-04-05T00:08:30.512Z,0
2017-04-05T00:09:11.083Z,0
2017-04-05T00:09:51.640Z,0
2017-04-05T00:10:32.219Z,0
2017-04-05T00:11:12.784Z,0
2017-04-05T00:11:53.369Z,0
2017-04-05T00:12:33.938Z,0
2017-04-05T00:13:14.529Z,0
2017-04-05T00:13:55.105Z,0
2017-04-05T00:14:35.672Z,0
2017-04-05T00:15:16.249Z,0
2017-04-05T00:15:56.853Z,0
2017-04-05T00:16:37.413Z,0
2017-04-05T00:17:17.976Z,0
2017-04-05T00:17:58.562Z,0
2017-04-05T00:18:39.156Z,0
2017-04-05T00:19:19.745Z,0
2017-04-05T00:20:00.317Z,0
2017-04-05T00:20:40.891Z,0
2017-04-05T00:21:21.478Z,0
2017-04-05T00:22:02.057Z,0
2017-04-05T00:22:42.625Z,0
2017-04-05T00:23:23.197Z,0
2017-04-05T00:24:03.775Z,0
2017-04-05T00:24:44.348Z,0
2017-04-05T00:25:24.925Z,0
2017-04-05T00:26:05.530Z,0
2017-04-05T00:26:46.105Z,0
2017-04-05T00:27:26.686Z,0
2017-04-05T00:28:07.260Z,0
2017-04-05T00:28:47.879Z,0
2017-04-05T00:29:28.464Z,0
2017-04-05T00:30:09.042Z,0
2017-04-05T00:30:49.614Z,0
2017-04-05T00:31:30.175Z,0
2017-04-05T00:32:10.741Z,0
2017-04-05T00:32:51.366Z,0
2017-04-05T00:33:31.911Z,0
2017-04-05T00:34:12.476Z,0
2017-04-05T00:34:53.062Z,0
2017-04-05T00:35:33.638Z,0
2017-04-05T00:36:14.225Z,0
2017-04-05T00:36:54.796Z,0
2017-04-05T00:37:35.362Z,0
2017-04-05T00:38:15.923Z,0
2017-04-05T00:38:56.519Z,0
2017-04-05T00:39:37.101Z,0
2017-04-05T00:40:17.687Z,0
2017-04-05T00:40:58.265Z,0
2017-04-05T00:41:38.879Z,0
2017-04-05T00:42:19.450Z,0
2017-04-05T00:43:00.045Z,0
2017-04-05T00:43:40.653Z,0
2017-04-05T00:44:21.285Z,0
2017-04-05T00:45:01.858Z,0
2017-04-05T00:45:42.457Z,0
2017-04-05T00:46:23.025Z,0
2017-04-05T00:47:03.598Z,0
2017-04-05T00:47:44.179Z,0
2017-04-05T00:48:24.749Z,0
2017-04-05T00:49:05.348Z,0
2017-04-05T00:49:45.912Z,0
2017-04-05T00:50:26.545Z,0
2017-04-05T00:51:07.122Z,0
2017-04-05T00:51:47.775Z,0
2017-04-05T00:52:28.308Z,0
2017-04-05T00:53:08.883Z,0
2017-04-05T00:53:49.447Z,0
2017-04-05T00:54:30.020Z,0
2017-04-05T00:55:10.608Z,0
2017-04-05T00:55:51.197Z,0
2017-04-05T00:56:31.800Z,0
2017-04-05T00:57:12.363Z,0
2017-04-05T00:57:52.937Z,0
2017-04-05T00:58:33.516Z,0
2017-04-05T00:59:14.095Z,0
2017-04-05T00:59:54.667Z,0
2017-04-05T01:00:35.237Z,0
2017-04-05T01:01:15.810Z,0
2017-04-05T01:01:56.385Z,0
2017-04-05T01:02:36.976Z,0
2017-04-05T01:03:17.561Z,0
2017-04-05T01:03:58.140Z,0
2017-04-05T01:04:38.710Z,0
2017-04-05T01:05:19.291Z,0
2017-04-05T01:05:59.883Z,0
2017-04-05T01:06:40.445Z,0
2017-04-05T01:07:21.041Z,0
2017-04-05T01:08:01.635Z,0
2017-04-05T01:08:42.207Z,0
2017-04-05T01:09:22.787Z,0
2017-04-05T01:10:03.383Z,0
2017-04-05T01:10:43.968Z,0
2017-04-05T01:11:24.541Z,0
2017-04-05T01:12:05.111Z,0
2017-04-05T01:12:45.701Z,0
2017-04-05T01:13:26.292Z,0
2017-04-05T01:14:06.866Z,0
2017-04-05T01:14:47.434Z,0
2017-04-05T01:15:28.014Z,0
2017-04-05T01:16:08.602Z,0
2017-04-05T01:16:49.183Z,0
2017-04-05T01:17:29.786Z,0
2017-04-05T01:18:10.353Z,0
2017-04-05T01:18:50.923Z,0
2017-04-05T01:19:31.513Z,0
2017-04-05T01:20:12.086Z,0
2017-04-05T01:20:52.656Z,0
2017-04-05T01:21:33.223Z,0
2017-04-05T01:22:13.816Z,0
2017-04-05T01:22:54.387Z,0
2017-04-05T01:23:34.958Z,0
2017-04-05T01:24:15.549Z,0
2017-04-05T01:24:56.116Z,0
2017-04-05T01:25:36.690Z,0
2017-04-05T01:26:17.257Z,0
2017-04-05T01:26:57.844Z,0
2017-04-05T01:27:38.439Z,0
2017-04-05T01:28:19.020Z,0
2017-04-05T01:28:59.606Z,0
2017-04-05T01:29:40.199Z,0
2017-04-05T01:30:20.786Z,0
2017-04-05T01:31:01.364Z,0
2017-04-05T01:31:41.938Z,0
2017-04-05T01:32:22.524Z,0
2017-04-05T01:33:03.096Z,0
2017-04-05T01:33:43.683Z,0
2017-04-05T01:34:24.334Z,0
2017-04-05T01:35:04.920Z,0
2017-04-05T01:35:45.505Z,0
2017-04-05T01:36:26.080Z,0
2017-04-05T01:37:06.656Z,0
2017-04-05T01:37:47.244Z,0
2017-04-05T01:38:27.811Z,0
2017-04-05T01:39:08.396Z,0
2017-04-05T01:39:48.971Z,0
2017-04-05T01:40:29.550Z,0
2017-04-05T01:41:10.125Z,0
2017-04-05T01:41:50.698Z,0
2017-04-05T01:42:31.279Z,0
2017-04-05T01:43:11.868Z,0
2017-04-05T01:43:52.445Z,0
2017-04-05T01:44:33.022Z,0
2017-04-05T01:45:13.646Z,0
2017-04-05T01:45:54.216Z,0
2017-04-05T01:46:34.786Z,0
2017-04-05T01:47:15.354Z,0
2017-04-05T01:47:55.937Z,0
2017-04-05T01:48:36.510Z,0
2017-04-05T01:49:17.078Z,0
2017-04-05T01:49:57.650Z,0
2017-04-05T01:50:38.232Z,0
2017-04-05T01:51:18.802Z,0
2017-04-05T01:51:59.392Z,0
2017-04-05T01:52:40.003Z,0
2017-04-05T01:53:20.592Z,0
2017-04-05T01:54:01.197Z,0
2017-04-05T01:54:41.765Z,0
2017-04-05T01:55:22.384Z,0
2017-04-05T01:56:02.935Z,0
2017-04-05T01:56:43.500Z,0
2017-04-05T01:57:24.091Z,0
2017-04-05T01:58:04.658Z,0
2017-04-05T01:58:45.263Z,0
2017-04-05T01:59:25.837Z,0
2017-04-05T02:00:06.597Z,0
2017-04-05T02:00:49.143Z,0
2017-04-05T02:01:30.290Z,0
2017-04-05T02:02:11.388Z,0
2017-04-05T02:02:52.000Z,0
2017-04-05T02:03:32.570Z,0
2017-04-05T02:04:13.139Z,0
2017-04-05T02:04:53.718Z,0
2017-04-05T02:05:34.307Z,0
2017-04-05T02:06:14.941Z,0
2017-04-05T02:06:55.530Z,0
2017-04-05T02:07:36.101Z,0
2017-04-05T02:08:16.728Z,0
2017-04-05T02:08:57.334Z,0
2017-04-05T02:09:37.912Z,0
2017-04-05T02:10:18.526Z,0
2017-04-05T02:10:59.111Z,0
2017-04-05T02:11:39.712Z,0
2017-04-05T02:12:20.291Z,0
2017-04-05T02:13:00.864Z,0
2017-04-05T02:13:41.463Z,0
2017-04-05T02:14:22.042Z,0
2017-04-05T02:15:02.643Z,0
2017-04-05T02:15:43.208Z,0
2017-04-05T02:16:23.803Z,0
2017-04-05T02:17:04.396Z,0
2017-04-05T02:17:44.984Z,0
2017-04-05T02:18:25.580Z,0
2017-04-05T02:19:06.142Z,0
2017-04-05T02:19:46.720Z,0
2017-04-05T02:20:27.314Z,0
2017-04-05T02:21:07.913Z,0
2017-04-05T02:21:48.472Z,0
2017-04-05T02:22:29.094Z,0
2017-04-05T02:23:09.670Z,0
2017-04-05T02:23:50.258Z,0
2017-04-05T02:24:30.869Z,0
2017-04-05T02:25:11.454Z,0
2017-04-05T02:25:52.064Z,0
2017-04-05T02:26:32.665Z,0
2017-04-05T02:27:13.244Z,0
2017-04-05T02:27:53.796Z,0
2017-04-05T02:28:34.371Z,0
2017-04-05T02:29:14.977Z,0
2017-04-05T02:29:55.545Z,0
2017-04-05T02:30:36.130Z,0
2017-04-05T02:31:16.710Z,0
2017-04-05T02:31:57.313Z,0
2017-04-05T02:32:37.900Z,0
2017-04-05T02:33:18.472Z,0
2017-04-05T02:33:59.068Z,0
2017-04-05T02:34:39.639Z,0
2017-04-05T02:35:20.223Z,0
2017-04-05T02:36:00.807Z,0
2017-04-05T02:36:41.387Z,0
2017-04-05T02:37:21.979Z,0
2017-04-05T02:38:02.574Z,0
2017-04-05T02:38:43.143Z,0
2017-04-05T02:39:23.774Z,0
2017-04-05T02:40:04.369Z,0
2017-04-05T02:40:44.940Z,0
2017-04-05T02:41:25.512Z,0
2017-04-05T02:42:06.101Z,0
2017-04-05T02:42:46.692Z,0
2017-04-05T02:43:27.280Z,0
2017-04-05T02:44:07.851Z,0
2017-04-05T02:44:48.423Z,0
2017-04-05T02:45:29.022Z,0
2017-04-05T02:46:09.600Z,0
2017-04-05T02:46:50.181Z,0
2017-04-05T02:47:30.763Z,0
2017-04-05T02:48:11.341Z,0
2017-04-05T02:48:51.918Z,0
2017-04-05T02:49:32.501Z,0
2017-04-05T02:50:13.077Z,0
2017-04-05T02:50:53.653Z,0
2017-04-05T02:51:34.229Z,0
2017-04-05T02:52:14.804Z,0
2017-04-05T02:52:55.379Z,0
2017-04-05T02:53:35.950Z,0
2017-04-05T02:54:16.554Z,0
2017-04-05T02:54:57.134Z,0
2017-04-05T02:55:37.728Z,0
2017-04-05T02:56:18.417Z,0
2017-04-05T02:56:59.061Z,0
2017-04-05T02:57:39.637Z,0
2017-04-05T02:58:20.252Z,0
2017-04-05T02:59:00.829Z,0
2017-04-05T02:59:41.406Z,0
2017-04-05T03:00:21.979Z,0
2017-04-05T03:01:02.558Z,0
2017-04-05T03:01:43.139Z,0
2017-04-05T03:02:23.711Z,0
2017-04-05T03:03:04.331Z,0
2017-04-05T03:03:44.908Z,0
2017-04-05T03:04:25.514Z,0
2017-04-05T03:05:06.095Z,0
2017-04-05T03:05:46.686Z,0
2017-04-05T03:06:27.279Z,0
2017-04-05T03:07:07.860Z,0
2017-04-05T03:07:48.463Z,0
2017-04-05T03:08:29.045Z,0
2017-04-05T03:09:09.625Z,0
2017-04-05T03:09:50.255Z,0
2017-04-05T03:10:30.847Z,0
2017-04-05T03:11:11.430Z,0
2017-04-05T03:11:52.040Z,0
2017-04-05T03:12:32.622Z,0
2017-04-05T03:13:13.212Z,0
2017-04-05T03:13:53.795Z,0
2017-04-05T03:14:34.357Z,0
2017-04-05T03:15:14.969Z,0
2017-04-05T03:15:55.551Z,0
2017-04-05T03:16:36.120Z,0
2017-04-05T03:17:16.705Z,0
2017-04-05T03:17:57.286Z,0
2017-04-05T03:18:37.862Z,0
2017-04-05T03:19:18.469Z,0
2017-04-05T03:19:59.083Z,0
2017-04-05T03:20:39.661Z,0
2017-04-05T03:21:20.232Z,0
2017-04-05T03:22:00.801Z,0
2017-04-05T03:22:41.380Z,0
2017-04-05T03:23:21.952Z,0
2017-04-05T03:24:02.539Z,0
2017-04-05T03:24:43.127Z,0
2017-04-05T03:25:23.694Z,0
2017-04-05T03:26:04.294Z,0
2017-04-05T03:26:44.887Z,0
2017-04-05T03:27:25.457Z,0
2017-04-05T03:28:06.034Z,0
2017-04-05T03:28:46.619Z,0
2017-04-05T03:29:27.198Z,0
2017-04-05T03:30:07.808Z,0
2017-04-05T03:30:48.401Z,0
2017-04-05T03:31:28.995Z,0
2017-04-05T03:32:09.614Z,0
2017-04-05T03:32:50.230Z,0
2017-04-05T03:33:30.848Z,0
2017-04-05T03:34:11.431Z,0
2017-04-05T03:34:52.010Z,0
2017-04-05T03:35:32.591Z,0
2017-04-05T03:36:13.169Z,0
2017-04-05T03:36:53.786Z,0
2017-04-05T03:37:34.376Z,0
2017-04-05T03:38:14.948Z,0
2017-04-05T03:38:55.524Z,0
2017-04-05T03:39:36.111Z,0
2017-04-05T03:40:16.708Z,0
2017-04-05T03:40:57.289Z,0
2017-04-05T03:41:37.863Z,0
2017-04-05T03:42:18.472Z,0
2017-04-05T03:42:59.070Z,0
2017-04-05T03:43:39.700Z,0
2017-04-05T03:44:20.362Z,0
2017-04-05T03:45:01.001Z,0
2017-04-05T03:45:41.698Z,0
2017-04-05T03:46:22.299Z,0
2017-04-05T03:47:02.922Z,0
2017-04-05T03:47:43.533Z,0
2017-04-05T03:48:24.109Z,0
2017-04-05T03:49:04.697Z,0
2017-04-05T03:49:45.283Z,0
2017-04-05T03:50:25.890Z,0
2017-04-05T03:51:06.487Z,0
2017-04-05T03:51:47.066Z,0
2017-04-05T03:52:27.649Z,0
2017-04-05T03:53:08.228Z,0
2017-04-05T03:53:48.803Z,0
2017-04-05T03:54:29.369Z,0
2017-04-05T03:55:09.945Z,0
2017-04-05T03:55:50.522Z,0
2017-04-05T03:56:31.133Z,0
2017-04-05T03:57:11.697Z,0
2017-04-05T03:57:52.287Z,0
2017-04-05T03:58:32.875Z,0
2017-04-05T03:59:13.442Z,0
2017-04-05T03:59:54.082Z,0
2017-04-05T04:00:34.786Z,0
2017-04-05T04:01:15.370Z,0
2017-04-05T04:01:55.951Z,0
2017-04-05T04:02:36.525Z,0
2017-04-05T04:03:17.125Z,0
2017-04-05T04:03:57.694Z,0
2017-04-05T04:04:38.277Z,0
2017-04-05T04:05:18.850Z,0
2017-04-05T04:05:59.425Z,0
2017-04-05T04:06:40.010Z,0
2017-04-05T04:07:20.621Z,0
2017-04-05T04:08:01.240Z,0
2017-04-05T04:08:42.342Z,0
2017-04-05T04:09:23.039Z,0
2017-04-05T04:10:03.650Z,0
2017-04-05T04:10:44.241Z,0
2017-04-05T04:11:24.805Z,0
2017-04-05T04:12:05.430Z,0
2017-04-05T04:12:46.009Z,0
2017-04-05T04:13:26.596Z,0
2017-04-05T04:14:07.171Z,0
2017-04-05T04:14:47.742Z,0
2017-04-05T04:15:28.313Z,0
2017-04-05T04:16:08.951Z,0
2017-04-05T04:16:49.517Z,0
2017-04-05T04:17:30.109Z,0
2017-04-05T04:18:10.720Z,0
2017-04-05T04:18:51.326Z,0
2017-04-05T04:19:31.891Z,0
2017-04-05T04:20:12.456Z,0
2017-04-05T04:20:53.030Z,0
2017-04-05T04:21:33.625Z,0
2017-04-05T04:22:14.205Z,0
2017-04-05T04:22:54.797Z,0
2017-04-05T04:23:35.379Z,0
2017-04-05T04:24:15.949Z,0
2017-04-05T04:24:56.537Z,0
2017-04-05T04:25:37.120Z,0
2017-04-05T04:26:17.729Z,0
2017-04-05T04:26:58.290Z,0
2017-04-05T04:27:38.879Z,0
2017-04-05T04:28:19.560Z,0
2017-04-05T04:29:00.133Z,0
2017-04-05T04:29:40.698Z,0
2017-04-05T04:30:21.287Z,0
2017-04-05T04:31:01.875Z,0
2017-04-05T04:31:42.481Z,0
2017-04-05T04:32:23.079Z,0
2017-04-05T04:33:03.672Z,0
2017-04-05T04:33:44.260Z,0
2017-04-05T04:34:24.852Z,0
2017-04-05T04:35:05.429Z,0
2017-04-05T04:35:46.010Z,0
2017-04-05T04:36:26.611Z,0
2017-04-05T04:37:07.178Z,0
2017-04-05T04:37:47.759Z,0
2017-04-05T04:38:28.344Z,0
2017-04-05T04:39:09.742Z,0
2017-04-05T04:39:50.456Z,0
2017-04-05T04:40:31.059Z,0
2017-04-05T04:41:11.677Z,0
2017-04-05T04:41:52.280Z,0
2017-04-05T04:42:32.866Z,0
2017-04-05T04:43:13.452Z,0
2017-04-05T04:43:54.063Z,0
2017-04-05T04:44:34.672Z,5
2017-04-05T04:45:15.308Z,5
2017-04-05T04:45:56.208Z,5
2017-04-05T04:46:37.020Z,5
2017-04-05T04:47:17.810Z,5
2017-04-05T04:47:58.399Z,5
2017-04-05T04:48:38.989Z,5
2017-04-05T04:49:19.592Z,5
2017-04-05T04:50:00.157Z,5
2017-04-05T04:50:40.760Z,5
2017-04-05T04:51:21.321Z,10
2017-04-05T04:52:01.912Z,10
2017-04-05T04:52:42.505Z,10
2017-04-05T04:53:23.088Z,10
2017-04-05T04:54:03.663Z,10
2017-04-05T04:54:44.240Z,10
2017-04-05T04:55:24.847Z,10
2017-04-05T04:56:05.424Z,10
2017-04-05T04:56:45.987Z,10
2017-04-05T04:57:26.576Z,10
2017-04-05T04:58:07.149Z,15
2017-04-05T04:58:47.744Z,15
2017-04-05T04:59:28.325Z,15
2017-04-05T05:00:08.889Z,15
2017-04-05T05:00:49.461Z,15
2017-04-05T05:01:30.034Z,15
2017-04-05T05:02:10.596Z,15
2017-04-05T05:02:51.171Z,20
2017-04-05T05:03:31.811Z,20
2017-04-05T05:04:12.381Z,20
2017-04-05T05:04:52.969Z,20
2017-04-05T05:05:33.562Z,20
2017-04-05T05:06:14.145Z,20
2017-04-05T05:06:54.747Z,25
2017-04-05T05:07:35.309Z,25
2017-04-05T05:08:15.881Z,25
2017-04-05T05:08:56.479Z,25
2017-04-05T05:09:37.064Z,25
2017-04-05T05:10:17.631Z,25
2017-04-05T05:10:58.204Z,30
2017-04-05T05:11:38.763Z,30
2017-04-05T05:12:19.331Z,30
2017-04-05T05:12:59.932Z,30
2017-04-05T05:13:40.503Z,30
2017-04-05T05:14:21.092Z,30
2017-04-05T05:15:01.656Z,35
2017-04-05T05:15:42.286Z,35
2017-04-05T05:16:22.870Z,35
2017-04-05T05:17:03.449Z,35
2017-04-05T05:17:44.067Z,35
2017-04-05T05:18:24.639Z,35
2017-04-05T05:19:05.230Z,35
2017-04-05T05:19:45.807Z,35
2017-04-05T05:20:26.412Z,35
2017-04-05T05:21:07.009Z,35
2017-04-05T05:21:47.596Z,35
2017-04-05T05:22:28.175Z,35
2017-04-05T05:23:08.774Z,35
2017-04-05T05:23:49.345Z,35
2017-04-05T05:24:29.907Z,40
2017-04-05T05:25:10.483Z,40
2017-04-05T05:25:51.054Z,40
2017-04-05T05:26:31.625Z,45
2017-04-05T05:27:12.198Z,45
2017-04-05T05:27:52.785Z,45
2017-04-05T05:28:33.393Z,45
2017-04-05T05:29:13.975Z,40
2017-04-05T05:29:54.637Z,40
2017-04-05T05:30:35.210Z,40
2017-04-05T05:31:15.806Z,40
2017-04-05T05:31:56.386Z,35
2017-04-05T05:32:36.989Z,35
2017-04-05T05:33:17.586Z,35
2017-04-05T05:33:58.123Z,35
2017-04-05T05:34:38.724Z,35
2017-04-05T05:35:19.307Z,35
2017-04-05T05:35:59.908Z,35
2017-04-05T05:36:40.511Z,30
2017-04-05T05:37:21.107Z,30
2017-04-05T05:38:01.669Z,30
2017-04-05T05:38:42.251Z,30
2017-04-05T05:39:22.846Z,30
2017-04-05T05:40:03.409Z,30
2017-04-05T05:40:43.982Z,30
2017-04-05T05:41:24.593Z,30
2017-04-05T05:42:05.162Z,25
2017-04-05T05:42:48.131Z,25
2017-04-05T05:43:36.153Z,25
2017-04-05T05:44:24.309Z,20
2017-04-05T05:45:11.898Z,20
2017-04-05T05:45:59.461Z,20
2017-04-05T05:46:46.968Z,20
2017-04-05T05:47:34.486Z,20
2017-04-05T05:48:21.439Z,20
2017-04-05T05:49:02.694Z,20
2017-04-05T05:49:47.449Z,20
2017-04-05T05:50:33.232Z,20
2017-04-05T05:51:13.816Z,20
2017-04-05T05:51:54.390Z,20
2017-04-05T05:52:35.018Z,25
2017-04-05T05:53:15.604Z,25
2017-04-05T05:53:56.189Z,25
2017-04-05T05:54:36.759Z,25
2017-04-05T05:55:17.348Z,25
2017-04-05T05:55:57.933Z,25
2017-04-05T05:56:38.506Z,25
2017-04-05T05:57:19.091Z,25
2017-04-05T05:57:59.691Z,25
2017-04-05T05:58:40.271Z,25
2017-04-05T05:59:20.871Z,25
2017-04-05T06:00:01.446Z,25
2017-04-05T06:00:42.021Z,30
2017-04-05T06:01:23.162Z,30
2017-04-05T06:02:03.729Z,30
2017-04-05T06:02:44.306Z,30
2017-04-05T06:03:24.897Z,35
2017-04-05T06:04:05.483Z,35
2017-04-05T06:04:46.057Z,35
2017-04-05T06:05:26.847Z,40
2017-04-05T06:06:07.432Z,45
2017-04-05T06:06:48.132Z,50
2017-04-05T06:07:28.737Z,50
2017-04-05T06:08:09.309Z,50
2017-04-05T06:08:49.874Z,55
2017-04-05T06:09:30.780Z,55
2017-04-05T06:10:11.310Z,60
2017-04-05T06:10:51.878Z,60
2017-04-05T06:11:32.450Z,65
2017-04-05T06:12:13.029Z,70
2017-04-05T06:12:53.634Z,70
2017-04-05T06:13:34.250Z,70
2017-04-05T06:14:14.968Z,65
2017-04-05T06:14:55.573Z,60
2017-04-05T06:15:36.151Z,55
2017-04-05T06:16:16.770Z,55
2017-04-05T06:16:57.321Z,50
2017-04-05T06:17:37.907Z,45
2017-04-05T06:18:18.487Z,40
2017-04-05T06:18:59.146Z,40
2017-04-05T06:19:39.732Z,40
2017-04-05T06:20:20.340Z,40
2017-04-05T06:21:00.912Z,40
2017-04-05T06:21:41.524Z,40
2017-04-05T06:22:22.103Z,35
2017-04-05T06:23:02.708Z,35
2017-04-05T06:23:43.276Z,35
2017-04-05T06:24:23.861Z,35
2017-04-05T06:25:04.436Z,35
2017-04-05T06:25:45.046Z,40
2017-04-05T06:26:25.629Z,40
2017-04-05T06:27:06.209Z,40
2017-04-05T06:27:46.788Z,45
2017-04-05T06:28:27.384Z,50
2017-04-05T06:29:07.973Z,55
2017-04-05T06:29:48.552Z,60
2017-04-05T06:30:29.133Z,65
2017-04-05T06:31:09.770Z,75
2017-04-05T06:31:50.343Z,80
2017-04-05T06:32:31.074Z,85
2017-04-05T06:33:11.694Z,90
2017-04-05T06:33:52.287Z,100
2017-04-05T06:34:32.867Z,105
2017-04-05T06:35:13.443Z,110
2017-04-05T06:35:54.026Z,110
2017-04-05T06:36:34.597Z,115
2017-04-05T06:37:15.173Z,115
2017-04-05T06:37:55.759Z,110
2017-04-05T06:38:36.332Z,100
2017-04-05T06:39:16.915Z,85
2017-04-05T06:39:57.523Z,70
2017-04-05T06:40:38.093Z,60
2017-04-05T06:41:18.685Z,55
2017-04-05T06:41:59.296Z,50
2017-04-05T06:42:39.883Z,55
2017-04-05T06:43:20.469Z,50
2017-04-05T06:44:01.043Z,50
2017-04-05T06:44:41.634Z,50
2017-04-05T06:45:22.207Z,45
2017-04-05T06:46:02.774Z,50
2017-04-05T06:46:43.388Z,50
2017-04-05T06:47:23.979Z,55
2017-04-05T06:48:04.568Z,55
2017-04-05T06:48:45.159Z,55
2017-04-05T06:49:25.726Z,55
2017-04-05T06:50:06.305Z,50
2017-04-05T06:50:46.889Z,50
2017-04-05T06:51:27.493Z,50
2017-04-05T06:52:08.066Z,45
2017-04-05T06:52:48.737Z,40
2017-04-05T06:53:29.346Z,40
2017-04-05T06:54:09.907Z,35
2017-04-05T06:54:50.592Z,35
2017-04-05T06:55:31.164Z,35
2017-04-05T06:56:11.745Z,35
2017-04-05T06:56:52.332Z,40
2017-04-05T06:57:32.923Z,40
2017-04-05T06:58:13.497Z,45
2017-04-05T06:58:54.131Z,45
2017-04-05T06:59:34.770Z,45
2017-04-05T07:00:15.529Z,45
2017-04-05T07:00:56.132Z,50
2017-04-05T07:01:36.709Z,45
2017-04-05T07:02:17.329Z,45
2017-04-05T07:02:57.923Z,40
2017-04-05T07:03:38.526Z,40
2017-04-05T07:04:19.098Z,40
2017-04-05T07:04:59.689Z,40
2017-04-05T07:05:40.287Z,40
2017-04-05T07:06:20.882Z,45
2017-04-05T07:07:01.455Z,45
2017-04-05T07:07:42.040Z,50
2017-04-05T07:08:22.634Z,50
2017-04-05T07:09:03.233Z,55
2017-04-05T07:09:43.855Z,60
2017-04-05T07:10:24.427Z,60
2017-04-05T07:11:05.130Z,55
2017-04-05T07:11:45.703Z,55
2017-04-05T07:12:26.300Z,55
2017-04-05T07:13:06.895Z,55
2017-04-05T07:13:47.481Z,55
2017-04-05T07:14:28.064Z,55
2017-04-05T07:15:08.629Z,50
2017-04-05T07:15:49.204Z,50
2017-04-05T07:16:29.890Z,50
2017-04-05T07:17:10.537Z,45
2017-04-05T07:17:51.133Z,40
2017-04-05T07:18:31.743Z,40
2017-04-05T07:19:12.305Z,35
2017-04-05T07:19:52.902Z,35
2017-04-05T07:20:33.466Z,35
2017-04-05T07:21:15.018Z,35
2017-04-05T07:21:55.645Z,35
2017-04-05T07:22:36.221Z,40
2017-04-05T07:23:16.807Z,40
2017-04-05T07:23:57.391Z,40
2017-04-05T07:24:37.984Z,40
2017-04-05T07:25:18.666Z,40
2017-04-05T07:25:59.432Z,40
2017-04-05T07:26:40.030Z,45
2017-04-05T07:27:20.625Z,45
2017-04-05T07:28:01.213Z,45
2017-04-05T07:28:41.783Z,50
2017-04-05T07:29:22.354Z,55
2017-04-05T07:30:02.956Z,55
2017-04-05T07:30:43.535Z,60
2017-04-05T07:31:24.114Z,60
2017-04-05T07:32:04.752Z,60
2017-04-05T07:32:45.339Z,60
2017-04-05T07:33:25.951Z,60
2017-04-05T07:34:06.577Z,60
2017-04-05T07:34:47.164Z,60
2017-04-05T07:35:27.766Z,60
2017-04-05T07:36:08.334Z,60
2017-04-05T07:36:48.901Z,55
2017-04-05T07:37:29.479Z,55
2017-04-05T07:38:10.091Z,55
2017-04-05T07:38:50.667Z,55
2017-04-05T07:39:31.259Z,55
2017-04-05T07:40:11.843Z,55
2017-04-05T07:40:52.456Z,55
2017-04-05T07:41:33.037Z,60
2017-04-05T07:42:13.608Z,60
2017-04-05T07:42:54.205Z,65
2017-04-05T07:43:34.790Z,75
2017-04-05T07:44:15.458Z,75
2017-04-05T07:44:56.054Z,80
2017-04-05T07:45:36.615Z,75
2017-04-05T07:46:17.205Z,70
2017-04-05T07:46:57.785Z,70
2017-04-05T07:47:38.395Z,70
2017-04-05T07:48:19.002Z,70
2017-04-05T07:48:59.590Z,65
2017-04-05T07:49:40.166Z,65
2017-04-05T07:50:20.744Z,70
2017-04-05T07:51:01.314Z,75
2017-04-05T07:51:41.887Z,85
2017-04-05T07:52:22.720Z,100
2017-04-05T07:53:03.372Z,110
2017-04-05T07:53:43.977Z,115
2017-04-05T07:54:24.560Z,120
2017-04-05T07:55:05.116Z,120
2017-04-05T07:55:45.700Z,130
2017-04-05T07:56:26.320Z,140
2017-04-05T07:57:06.897Z,155
2017-04-05T07:57:47.502Z,200
2017-04-05T07:58:28.096Z,390
2017-04-05T07:59:08.685Z,635
2017-04-05T07:59:49.289Z,305
2017-04-05T08:00:29.863Z,215
2017-04-05T08:01:10.576Z,170
2017-04-05T08:01:51.375Z,155
2017-04-05T08:02:31.958Z,145
2017-04-05T08:03:12.660Z,140
2017-04-05T08:03:53.417Z,140
2017-04-05T08:04:34.007Z,150
2017-04-05T08:05:14.595Z,155
2017-04-05T08:05:55.172Z,170
2017-04-05T08:06:35.791Z,185
2017-04-05T08:07:16.385Z,170
2017-04-05T08:07:56.997Z,170
2017-04-05T08:08:37.694Z,175
2017-04-05T08:09:18.563Z,185
2017-04-05T08:09:59.435Z,205
2017-04-05T08:10:40.038Z,230
2017-04-05T08:11:20.650Z,250
2017-04-05T08:12:01.288Z,395
2017-04-05T08:12:41.888Z,295
2017-04-05T08:13:22.542Z,280
2017-04-05T08:14:03.122Z,285
2017-04-05T08:14:43.714Z,310
2017-04-05T08:15:24.418Z,265
2017-04-05T08:16:05.016Z,255
2017-04-05T08:16:45.632Z,265
2017-04-05T08:17:26.267Z,255
2017-04-05T08:18:06.859Z,245
2017-04-05T08:18:47.470Z,250
2017-04-05T08:19:28.151Z,230
2017-04-05T08:20:09.019Z,190
2017-04-05T08:20:49.915Z,145
2017-04-05T08:21:30.488Z,115
2017-04-05T08:22:11.104Z,105
2017-04-05T08:22:51.652Z,95
2017-04-05T08:23:32.554Z,95
2017-04-05T08:24:13.139Z,90
2017-04-05T08:24:53.702Z,90
2017-04-05T08:25:34.366Z,85
2017-04-05T08:26:15.048Z,80
2017-04-05T08:26:55.625Z,75
2017-04-05T08:27:36.212Z,75
2017-04-05T08:28:16.812Z,70
2017-04-05T08:28:58.739Z,70
2017-04-05T08:29:39.509Z,70
2017-04-05T08:30:20.176Z,70
2017-04-05T08:31:00.759Z,75
2017-04-05T08:31:41.348Z,75
2017-04-05T08:32:21.995Z,80
2017-04-05T08:33:02.575Z,85
2017-04-05T08:33:43.159Z,90
2017-04-05T08:34:23.750Z,100
2017-04-05T08:35:04.356Z,110
2017-04-05T08:35:44.957Z,115
2017-04-05T08:36:25.546Z,130
2017-04-05T08:37:06.287Z,135
2017-04-05T08:37:47.091Z,155
2017-04-05T08:38:27.709Z,230
2017-04-05T08:39:08.287Z,215
2017-04-05T08:39:48.864Z,260
2017-04-05T08:40:29.444Z,265
2017-04-05T08:41:10.033Z,285
2017-04-05T08:41:50.823Z,280
2017-04-05T08:42:31.677Z,305
2017-04-05T08:43:12.258Z,355
2017-04-05T08:43:52.846Z,320
2017-04-05T08:44:33.438Z,310
2017-04-05T08:45:14.038Z,315
2017-04-05T08:45:54.613Z,360
2017-04-05T08:46:35.586Z,400
2017-04-05T08:47:16.194Z,345
2017-04-05T08:47:56.777Z,365
2017-04-05T08:48:37.378Z,375
2017-04-05T08:49:17.982Z,385
2017-04-05T08:49:58.585Z,385
2017-04-05T08:50:39.185Z,380
2017-04-05T08:51:19.778Z,375
2017-04-05T08:52:00.370Z,370
2017-04-05T08:52:40.974Z,355
2017-04-05T08:53:21.558Z,370
2017-04-05T08:54:02.159Z,365
2017-04-05T08:54:42.775Z,360
2017-04-05T08:55:23.381Z,345
2017-04-05T08:56:03.980Z,345
2017-04-05T08:56:44.608Z,335
2017-04-05T08:57:25.205Z,360
2017-04-05T08:58:05.817Z,345
2017-04-05T08:58:46.402Z,345
2017-04-05T08:59:27.004Z,355
2017-04-05T09:00:07.599Z,340
2017-04-05T09:00:48.214Z,335
2017-04-05T09:01:28.840Z,320
2017-04-05T09:02:09.428Z,315
2017-04-05T09:02:50.050Z,300
2017-04-05T09:03:30.649Z,295
2017-04-05T09:04:11.222Z,295
2017-04-05T09:04:51.819Z,310
2017-04-05T09:05:32.409Z,325
2017-04-05T09:06:12.994Z,340
2017-04-05T09:06:53.634Z,350
2017-04-05T09:07:34.203Z,345
2017-04-05T09:08:14.786Z,350
2017-04-05T09:08:55.375Z,350
2017-04-05T09:09:35.982Z,345
2017-04-05T09:10:16.571Z,320
2017-04-05T09:10:57.153Z,305
2017-04-05T09:11:37.737Z,290
2017-04-05T09:12:18.325Z,285
2017-04-05T09:12:58.930Z,260
2017-04-05T09:13:39.527Z,235
2017-04-05T09:14:20.123Z,260
2017-04-05T09:15:00.719Z,255
2017-04-05T09:15:41.313Z,270
2017-04-05T09:16:21.901Z,270
2017-04-05T09:17:02.507Z,285
2017-04-05T09:17:43.141Z,290
2017-04-05T09:18:23.727Z,300
2017-04-05T09:19:04.340Z,305
2017-04-05T09:19:44.940Z,300
2017-04-05T09:20:25.558Z,300
2017-04-05T09:21:06.178Z,290
2017-04-05T09:21:46.773Z,270
2017-04-05T09:22:27.383Z,260
2017-04-05T09:23:07.974Z,250
2017-04-05T09:23:48.574Z,245
2017-04-05T09:24:29.194Z,240
2017-04-05T09:25:09.797Z,235
2017-04-05T09:25:50.391Z,230
2017-04-05T09:26:31.002Z,220
2017-04-05T09:27:11.609Z,210
2017-04-05T09:27:52.213Z,205
2017-04-05T09:28:32.821Z,205
2017-04-05T09:29:13.418Z,200
2017-04-05T09:29:54.014Z,200
2017-04-05T09:30:34.621Z,195
2017-04-05T09:31:15.226Z,195
2017-04-05T09:31:55.849Z,190
2017-04-05T09:32:36.444Z,180
2017-04-05T09:33:17.052Z,180
2017-04-05T09:33:57.651Z,180
2017-04-05T09:34:38.262Z,180
2017-04-05T09:35:18.885Z,185
2017-04-05T09:35:59.476Z,200
2017-04-05T09:36:40.073Z,210
2017-04-05T09:37:20.726Z,225
2017-04-05T09:38:01.334Z,235
2017-04-05T09:38:41.935Z,245
2017-04-05T09:39:22.547Z,250
2017-04-05T09:40:03.162Z,245
2017-04-05T09:40:43.745Z,250
2017-04-05T09:41:24.347Z,250
2017-04-05T09:42:04.940Z,260
2017-04-05T09:42:45.537Z,265
2017-04-05T09:43:26.134Z,260
2017-04-05T09:44:06.722Z,255
2017-04-05T09:44:47.317Z,260
2017-04-05T09:45:27.910Z,255
2017-04-05T09:46:08.501Z,260
2017-04-05T09:46:49.094Z,265